Time;durP1;ratioP1;P1;durP2;ratioP2;P2;SDS_P1;SDS_P2;PMS_P1;PMS_P2;Temp;Humidity;BMP_temperature;BMP_pressure;BME280_temperature;BME280_humidity;BME280_pressure;Samples;Min_cycle;Max_cycle;Signal;HPM_P1;HPM_P2
2023/08/18 00:02:15;;;;;;;11.65;2.35;;;;;;;19.24;100.00;100670.28;4962876;28;20042;-74
2023/08/18 00:05:19;;;;;;;8.27;2.15;;;;;;;19.20;100.00;100675.00;4964428;28;20057;-75
2023/08/18 00:08:23;;;;;;;6.32;2.03;;;;;;;19.16;100.00;100676.25;4964932;28;20146;-75
2023/08/18 00:11:32;;;;;;;9.60;2.13;;;;;;;19.14;100.00;100670.22;4962710;28;20058;-74
2023/08/18 00:14:40;;;;;;;10.13;1.77;;;;;;;19.11;100.00;100670.50;4964643;28;20061;-75
2023/08/18 00:17:47;;;;;;;27.77;3.50;;;;;;;19.15;100.00;100666.63;4961018;28;20042;-75
2023/08/18 00:20:51;;;;;;;14.13;2.25;;;;;;;19.18;100.00;100671.66;4962459;28;20559;-75
2023/08/18 00:23:59;;;;;;;11.15;2.63;;;;;;;19.13;100.00;100663.25;4951559;28;20407;-74
2023/08/18 00:27:27;;;;;;;13.45;2.95;;;;;;;19.05;100.00;100660.44;4950557;28;20408;-76
2023/08/18 00:30:41;;;;;;;15.82;3.10;;;;;;;19.03;100.00;100657.91;4954616;29;20134;-76
2023/08/18 00:33:45;;;;;;;20.40;2.95;;;;;;;19.01;100.00;100662.50;4954709;29;20045;-76
2023/08/18 00:36:49;;;;;;;12.55;2.90;;;;;;;18.98;100.00;100649.50;4942855;29;20042;-76
2023/08/18 00:40:09;;;;;;;9.68;3.20;;;;;;;18.92;100.00;100654.50;4954811;29;20055;-75
2023/08/18 00:43:12;;;;;;;13.55;2.97;;;;;;;18.99;100.00;100648.56;4954634;29;20547;-75
2023/08/18 00:46:18;;;;;;;17.08;3.80;;;;;;;18.98;100.00;100646.03;4942568;29;20102;-75
2023/08/18 00:49:22;;;;;;;15.75;3.38;;;;;;;19.01;100.00;100649.25;4931746;29;20069;-75
2023/08/18 00:52:26;;;;;;;14.23;4.13;;;;;;;18.94;100.00;100655.22;4954524;29;20420;-75
2023/08/18 00:55:44;;;;;;;20.67;4.03;;;;;;;18.90;100.00;100646.69;4937278;29;20094;-75
2023/08/18 00:58:48;;;;;;;15.20;3.40;;;;;;;18.88;100.00;100647.78;4916479;29;20054;-75
2023/08/18 01:01:52;;;;;;;15.13;3.22;;;;;;;18.80;100.00;100649.28;4939133;29;20474;-75
2023/08/18 01:05:05;;;;;;;10.93;2.85;;;;;;;18.81;100.00;100647.47;4927895;29;20458;-75
2023/08/18 01:08:11;;;;;;;14.75;3.15;;;;;;;18.78;100.00;100643.25;4939331;29;20061;-75
2023/08/18 01:11:47;;;;;;;14.18;4.28;;;;;;;18.73;100.00;100645.47;4939267;29;20099;-75
2023/08/18 01:15:03;;;;;;;10.80;3.50;;;;;;;18.69;100.00;100635.22;4938997;29;20042;-76
2023/08/18 01:18:11;;;;;;;12.60;3.70;;;;;;;18.65;100.00;100642.59;4927051;29;20569;-75
2023/08/18 01:21:40;;;;;;;15.88;4.20;;;;;;;18.67;100.00;100639.84;4927024;29;20047;-76
2023/08/18 01:25:01;;;;;;;13.85;4.55;;;;;;;18.73;100.00;100634.00;4906805;29;20106;-75
2023/08/18 01:28:26;;;;;;;12.43;3.78;;;;;;;18.77;100.00;100636.28;4939047;29;20042;-75
2023/08/18 01:36:00;;;;;;;11.40;2.65;;;;;;;18.76;100.00;100626.69;4921601;29;20106;-75
2023/08/18 01:39:36;;;;;;;5.95;2.42;;;;;;;18.78;100.00;100635.31;4927196;29;20529;-76
2023/08/18 01:42:40;;;;;;;7.00;2.13;;;;;;;18.63;100.00;100633.09;4938474;29;20069;-75
2023/08/18 01:45:52;;;;;;;4.10;2.05;;;;;;;18.52;100.00;100626.91;4926575;29;20047;-76
2023/08/18 01:49:02;;;;;;;7.90;2.25;;;;;;;18.53;100.00;100625.09;4926847;29;20042;-76
2023/08/18 01:52:16;;;;;;;10.80;2.40;;;;;;;18.49;100.00;100626.31;4927140;29;20082;-76
2023/08/18 01:55:37;;;;;;;11.50;2.50;;;;;;;18.45;100.00;100619.59;4926150;29;20058;-76
2023/08/18 01:58:54;;;;;;;16.58;2.92;;;;;;;18.42;100.00;100614.56;4925752;29;20517;-75
2023/08/18 02:02:10;;;;;;;11.65;3.10;;;;;;;18.42;100.00;100606.63;4926136;29;20078;-75
2023/08/18 02:05:17;;;;;;;5.90;2.45;;;;;;;18.39;100.00;100606.88;4924750;29;20046;-74
2023/08/18 02:08:21;;;;;;;15.38;2.92;;;;;;;18.34;100.00;100613.38;4925233;29;20416;-75
2023/08/18 02:11:25;;;;;;;14.68;2.92;;;;;;;18.33;100.00;100608.22;4914463;29;20050;-74
2023/08/18 02:14:31;;;;;;;14.98;2.63;;;;;;;18.32;100.00;100611.84;4936846;29;20406;-75
2023/08/18 02:17:50;;;;;;;8.90;2.50;;;;;;;18.35;100.00;100599.19;4936807;29;20058;-75
2023/08/18 02:21:25;;;;;;;5.50;2.30;;;;;;;18.34;100.00;100600.16;4924592;29;20537;-75
2023/08/18 02:30:07;;;;;;;6.85;2.13;;;;;;;18.16;100.00;100603.50;4841236;29;20406;-77
2023/08/18 02:33:47;;;;;;;8.00;2.58;;;;;;;18.10;100.00;100597.75;4843590;29;20061;-77
2023/08/18 02:36:51;;;;;;;13.70;2.65;;;;;;;18.06;100.00;100598.09;4866395;29;20066;-71
2023/08/18 02:39:54;;;;;;;8.88;1.55;;;;;;;18.04;100.00;100600.06;4924579;29;20050;-73
2023/08/18 02:42:58;;;;;;;9.00;2.00;;;;;;;18.00;100.00;100596.84;4916021;29;20103;-72
2023/08/18 02:46:02;;;;;;;5.85;2.03;;;;;;;17.96;100.00;100595.38;4905567;29;20055;-72
2023/08/18 02:49:05;;;;;;;10.30;2.38;;;;;;;17.89;100.00;100592.41;4905604;29;20067;-72
2023/08/18 02:52:10;;;;;;;11.48;2.75;;;;;;;17.87;100.00;100594.34;4905193;29;20062;-73
2023/08/18 02:55:14;;;;;;;8.40;2.30;;;;;;;17.88;100.00;100592.53;4875596;29;1229902;-76
2023/08/18 03:04:44;;;;;;;;;;;;;;;;;;;;;
2023/08/18 03:46:25;;;;;;;8.90;2.22;;;;;;;18.21;100.00;100601.31;4889598;29;20172;-73
2023/08/18 03:49:33;;;;;;;8.52;1.58;;;;;;;18.25;100.00;100600.06;4875203;29;20108;-73
2023/08/18 03:52:39;;;;;;;9.00;1.70;;;;;;;18.23;100.00;100600.22;4877863;29;20060;-74
2023/08/18 03:55:43;;;;;;;4.80;1.33;;;;;;;18.20;100.00;100597.00;4889634;29;20043;-73
2023/08/18 03:58:46;;;;;;;7.10;1.30;;;;;;;18.17;100.00;100595.44;4877529;29;20040;-73
2023/08/18 04:01:50;;;;;;;8.35;1.52;;;;;;;18.21;100.00;100604.78;4887813;29;20048;-73
2023/08/18 04:04:54;;;;;;;9.10;1.48;;;;;;;18.22;100.00;100603.84;4877667;29;20044;-74
2023/08/18 04:07:57;;;;;;;12.23;2.33;;;;;;;18.22;100.00;100597.69;4889052;29;20098;-74
2023/08/18 04:11:02;;;;;;;6.15;1.52;;;;;;;18.26;100.00;100594.66;4878003;29;20067;-74
2023/08/18 04:14:05;;;;;;;7.28;1.48;;;;;;;18.27;100.00;100591.03;4877396;29;20100;-74
2023/08/18 04:17:08;;;;;;;2.75;1.30;;;;;;;18.28;100.00;100592.75;4887335;29;20500;-74
2023/08/18 04:20:12;;;;;;;10.07;1.27;;;;;;;18.25;100.00;100598.28;4887770;29;20170;-74
2023/08/18 04:23:15;;;;;;;6.20;1.50;;;;;;;18.24;100.00;100599.25;4888128;29;20151;-74
2023/08/18 04:26:19;;;;;;;12.48;1.63;;;;;;;18.27;100.00;100596.34;4888614;29;20059;-74
2023/08/18 04:29:22;;;;;;;7.75;1.80;;;;;;;18.29;100.00;100604.16;4888935;29;20136;-75
2023/08/18 04:32:26;;;;;;;6.63;1.55;;;;;;;18.32;100.00;100604.75;4875592;29;20062;-75
2023/08/18 04:35:30;;;;;;;10.10;1.73;;;;;;;18.30;100.00;100604.03;4875411;29;20121;-74
2023/08/18 04:38:33;;;;;;;7.78;1.80;;;;;;;18.30;100.00;100601.38;4884824;29;20071;-74
2023/08/18 04:41:40;;;;;;;6.75;1.48;;;;;;;18.30;100.00;100606.66;4887568;29;20414;-74
2023/08/18 04:44:43;;;;;;;11.55;1.60;;;;;;;18.33;100.00;100614.34;4868997;29;20135;-74
2023/08/18 04:47:47;;;;;;;5.55;1.30;;;;;;;18.36;100.00;100615.91;4875687;29;20466;-74
2023/08/18 04:50:50;;;;;;;10.75;1.40;;;;;;;18.34;100.00;100615.19;4874103;29;20072;-75
2023/08/18 04:53:54;;;;;;;10.35;1.60;;;;;;;18.33;100.00;100611.72;4874615;29;20047;-74
2023/08/18 04:56:59;;;;;;;6.85;1.63;;;;;;;18.33;100.00;100616.16;4883358;29;20382;-74
2023/08/18 05:00:05;;;;;;;8.38;1.63;;;;;;;18.32;100.00;100614.50;4886237;29;20051;-75
2023/08/18 05:03:09;;;;;;;11.32;2.35;;;;;;;18.36;100.00;100622.03;4885597;29;20097;-75
2023/08/18 05:06:14;;;;;;;5.18;1.23;;;;;;;18.35;100.00;100620.38;4874415;29;20135;-75
2023/08/18 05:09:18;;;;;;;3.17;1.35;;;;;;;18.40;100.00;100616.50;4884564;29;20089;-75
2023/08/18 05:12:23;;;;;;;5.15;1.42;;;;;;;18.42;100.00;100606.63;4875587;29;20121;-75
2023/08/18 05:15:30;;;;;;;9.68;2.35;;;;;;;18.52;100.00;100615.47;4876143;29;20063;-75
2023/08/18 05:18:36;;;;;;;10.77;2.03;;;;;;;18.63;100.00;100609.25;4883715;29;20051;-75
2023/08/18 05:21:39;;;;;;;16.33;2.70;;;;;;;18.72;100.00;100616.44;4885273;29;20071;-75
2023/08/18 05:24:43;;;;;;;7.68;2.03;;;;;;;18.75;100.00;100624.97;4886321;29;20055;-75
2023/08/18 05:27:47;;;;;;;8.23;2.20;;;;;;;18.79;100.00;100621.13;4883177;29;20071;-75
2023/08/18 05:30:52;;;;;;;9.95;2.90;;;;;;;18.84;100.00;100619.88;4884242;29;20146;-75
2023/08/18 05:33:55;;;;;;;6.68;3.10;;;;;;;18.90;100.00;100620.19;4876135;29;20449;-75
2023/08/18 05:36:58;;;;;;;13.75;4.93;;;;;;;18.96;100.00;100624.13;4885524;29;20051;-75
2023/08/18 05:40:02;;;;;;;8.23;3.95;;;;;;;18.97;100.00;100626.63;4883145;29;20040;-77
2023/08/18 05:43:07;;;;;;;11.95;4.68;;;;;;;19.00;100.00;100629.03;4886286;29;20463;-75
2023/08/18 05:46:10;;;;;;;5.85;4.18;;;;;;;19.05;100.00;100624.19;4886556;29;20048;-75
2023/08/18 05:49:14;;;;;;;12.77;5.30;;;;;;;19.14;100.00;100641.06;4889011;29;20051;-75
2023/08/18 05:52:17;;;;;;;10.93;5.40;;;;;;;19.16;100.00;100641.78;4887595;29;20414;-74
2023/08/18 05:55:22;;;;;;;16.23;6.18;;;;;;;19.16;100.00;100641.78;4887177;29;20044;-75
2023/08/18 05:58:26;;;;;;;8.70;6.78;;;;;;;19.21;100.00;100644.06;4889728;29;20036;-75
2023/08/18 06:01:29;;;;;;;12.73;6.05;;;;;;;19.30;100.00;100653.84;4887526;29;20525;-75
2023/08/18 06:04:32;;;;;;;8.48;6.40;;;;;;;19.38;100.00;100646.06;4888647;29;20060;-76
2023/08/18 06:07:36;;;;;;;11.27;7.45;;;;;;;19.39;100.00;100652.22;4889300;29;20125;-77
2023/08/18 06:10:40;;;;;;;9.75;8.75;;;;;;;19.40;100.00;100645.91;4887393;29;20067;-76
2023/08/18 06:13:43;;;;;;;9.43;8.43;;;;;;;19.40;100.00;100648.56;4887168;29;20061;-76
2023/08/18 06:16:47;;;;;;;12.38;7.72;;;;;;;19.38;100.00;100646.06;4889581;29;20043;-78
2023/08/18 06:19:50;;;;;;;11.00;7.65;;;;;;;19.41;100.00;100650.28;4887065;29;20047;-73
2023/08/18 06:23:03;;;;;;;8.40;7.50;;;;;;;19.46;100.00;100645.38;4889484;29;20055;-76
2023/08/18 06:26:07;;;;;;;14.18;7.68;;;;;;;19.55;100.00;100647.22;4889588;29;20051;-76
2023/08/18 06:29:10;;;;;;;19.50;8.52;;;;;;;19.60;100.00;100655.63;4887938;29;20060;-75
2023/08/18 06:32:13;;;;;;;11.32;7.57;;;;;;;19.64;100.00;100653.59;4888268;29;20051;-77
2023/08/18 06:35:17;;;;;;;9.25;7.05;;;;;;;19.63;100.00;100660.66;4890116;29;20092;-80
2023/08/18 06:38:20;;;;;;;8.30;7.47;;;;;;;19.64;100.00;100659.72;4885977;29;20479;-77
2023/08/18 06:41:23;;;;;;;9.65;8.43;;;;;;;19.63;100.00;100657.19;4896333;29;20109;-76
2023/08/18 06:44:27;;;;;;;8.60;7.80;;;;;;;19.67;100.00;100662.09;4883226;29;20450;-75
2023/08/18 06:47:31;;;;;;;13.35;8.98;;;;;;;19.76;100.00;100667.59;4886294;29;20059;-75
2023/08/18 06:50:35;;;;;;;10.00;8.18;;;;;;;19.78;100.00;100666.44;4885563;29;20513;-75
2023/08/18 06:53:38;;;;;;;9.05;7.43;;;;;;;19.80;100.00;100668.97;4884940;29;20109;-75
2023/08/18 06:56:42;;;;;;;10.43;7.78;;;;;;;19.81;100.00;100673.31;4886804;29;20044;-75
2023/08/18 06:59:45;;;;;;;10.15;7.78;;;;;;;19.79;100.00;100670.81;4885254;29;20097;-75
2023/08/18 07:02:49;;;;;;;9.95;7.53;;;;;;;19.84;100.00;100670.38;4885216;29;20056;-77
2023/08/18 07:05:53;;;;;;;11.73;7.57;;;;;;;19.90;100.00;100675.13;4885043;29;20120;-76
2023/08/18 07:08:56;;;;;;;9.02;7.10;;;;;;;19.89;100.00;100660.19;4887588;29;20096;-77
2023/08/18 07:11:59;;;;;;;11.32;8.15;;;;;;;19.91;100.00;100660.88;4885314;29;20051;-76
2023/08/18 07:15:03;;;;;;;11.75;7.88;;;;;;;19.96;100.00;100656.84;4886491;29;20047;-76
2023/08/18 07:18:07;;;;;;;12.02;7.80;;;;;;;20.00;100.00;100668.03;4887497;29;20140;-76
2023/08/18 07:21:11;;;;;;;11.65;7.90;;;;;;;20.02;100.00;100660.78;4887418;29;20420;-76
2023/08/18 07:24:14;;;;;;;10.60;7.45;;;;;;;20.09;100.00;100661.91;4885068;29;20070;-76
2023/08/18 07:27:17;;;;;;;11.52;8.02;;;;;;;20.15;100.00;100677.28;4886328;29;20111;-75
2023/08/18 07:30:22;;;;;;;14.45;7.40;;;;;;;20.15;100.00;100677.28;4887209;29;20526;-75
2023/08/18 07:33:25;;;;;;;10.82;7.55;;;;;;;20.20;100.00;100675.06;4885779;29;20071;-75
2023/08/18 07:36:29;;;;;;;14.52;6.55;;;;;;;20.24;100.00;100680.09;4886030;29;20048;-75
2023/08/18 07:39:32;;;;;;;10.70;7.05;;;;;;;20.30;100.00;100676.88;4884678;29;20155;-75
2023/08/18 07:42:39;;;;;;;11.52;6.75;;;;;;;20.33;100.00;100680.09;4885618;29;20048;-75
2023/08/18 07:45:43;;;;;;;10.77;9.30;;;;;;;20.39;100.00;100678.69;4887950;29;20052;-79
2023/08/18 07:48:46;;;;;;;10.55;7.28;;;;;;;20.45;100.00;100678.09;4859572;29;20052;-73
2023/08/18 07:51:49;;;;;;;10.23;7.13;;;;;;;20.51;100.00;100676.72;4858755;29;20141;-73
2023/08/18 07:54:53;;;;;;;16.75;8.05;;;;;;;20.55;100.00;100673.69;4859505;29;20052;-73
2023/08/18 07:57:56;;;;;;;10.00;6.68;;;;;;;20.61;100.00;100656.31;4859507;29;20064;-73
2023/08/18 08:00:59;;;;;;;7.35;6.65;;;;;;;20.66;99.85;100654.91;4859516;29;20126;-72
2023/08/18 08:04:03;;;;;;;9.77;7.15;;;;;;;20.76;99.63;100670.00;4858973;29;20094;-75
2023/08/18 08:07:06;;;;;;;11.00;6.85;;;;;;;20.82;99.00;100674.75;4859550;29;20518;-74
2023/08/18 08:10:10;;;;;;;9.98;6.72;;;;;;;20.87;99.14;100677.84;4859288;29;20173;-66
2023/08/18 08:13:13;;;;;;;10.35;6.28;;;;;;;20.99;98.13;100679.31;4859464;29;20415;-68
2023/08/18 08:16:16;;;;;;;10.38;6.18;;;;;;;21.00;97.36;100667.72;4858391;29;20491;-68
2023/08/18 08:19:19;;;;;;;10.60;6.88;;;;;;;21.04;96.87;100669.09;4858710;29;20492;-67
2023/08/18 08:22:23;;;;;;;9.73;6.18;;;;;;;21.09;97.17;100669.53;4858754;29;20140;-67
2023/08/18 08:25:27;;;;;;;8.73;7.45;;;;;;;21.18;96.42;100669.63;4858886;29;20432;-67
2023/08/18 08:28:31;;;;;;;7.53;6.72;;;;;;;21.26;95.89;100673.25;4858640;29;20552;-66
2023/08/18 08:31:36;;;;;;;8.57;5.90;;;;;;;21.39;94.61;100672.09;4859024;29;20185;-67
2023/08/18 08:34:42;;;;;;;9.43;6.13;;;;;;;21.49;95.46;100670.22;4858925;29;20056;-68
2023/08/18 08:37:46;;;;;;;7.75;5.63;;;;;;;21.61;94.71;100665.56;4859051;29;20526;-68
2023/08/18 08:40:54;;;;;;;7.63;5.88;;;;;;;21.65;93.79;100661.63;4858890;29;20053;-67
2023/08/18 08:43:58;;;;;;;7.22;5.38;;;;;;;21.72;92.61;100662.69;4865010;29;20060;-68
2023/08/18 08:47:01;;;;;;;7.60;5.47;;;;;;;21.76;91.86;100664.06;4877596;29;20052;-68
2023/08/18 08:50:06;;;;;;;6.65;5.25;;;;;;;21.75;90.73;100659.72;4877463;29;20052;-68
2023/08/18 08:53:14;;;;;;;8.27;6.13;;;;;;;21.87;92.63;100665.69;4877377;29;20044;-68
2023/08/18 08:56:30;;;;;;;8.05;5.82;;;;;;;22.00;92.01;100658.16;4877370;29;20133;-68
2023/08/18 09:00:38;;;;;;;12.70;6.77;;;;;;;22.13;90.23;100660.47;4878741;29;20091;-75
2023/08/18 09:03:43;;;;;;;43.85;23.20;;;;;;;22.13;90.22;100655.13;4878087;29;20051;-77
2023/08/18 09:06:48;;;;;;;13.15;8.40;;;;;;;22.08;90.37;100646.75;4877975;29;20087;-76
2023/08/18 09:09:51;;;;;;;6.65;5.07;;;;;;;21.99;90.55;100654.69;4873889;29;20048;-76
2023/08/18 09:12:55;;;;;;;22.52;13.35;;;;;;;21.98;90.64;100647.66;4878356;29;20045;-76
2023/08/18 09:15:58;;;;;;;9.30;7.03;;;;;;;22.04;90.19;100641.72;4879117;29;20518;-77
2023/08/18 09:19:02;;;;;;;6.72;5.22;;;;;;;22.03;90.16;100633.91;4881097;29;20052;-78
2023/08/18 09:22:05;;;;;;;9.35;5.88;;;;;;;22.05;90.88;100638.09;4881045;29;20064;-77
2023/08/18 09:25:34;;;;;;;7.63;5.50;;;;;;;22.03;91.71;100642.72;4880810;29;20124;-77
2023/08/18 09:28:38;;;;;;;9.32;6.75;;;;;;;22.08;90.96;100639.63;4878882;29;20582;-77
2023/08/18 09:31:44;;;;;;;19.65;12.20;;;;;;;22.16;92.13;100639.72;4878905;29;20506;-77
2023/08/18 09:34:48;;;;;;;14.70;7.88;;;;;;;22.16;91.27;100622.91;4879754;29;20090;-75
2023/08/18 09:37:56;;;;;;;7.93;5.35;;;;;;;22.23;92.67;100626.63;4893415;29;20430;-74
2023/08/18 09:41:01;;;;;;;8.55;5.43;;;;;;;22.29;90.79;100623.34;4898412;29;20492;-77
2023/08/18 09:44:04;;;;;;;9.15;4.93;;;;;;;22.32;89.92;100620.38;4898859;29;20112;-75
2023/08/18 09:47:09;;;;;;;5.80;5.15;;;;;;;22.37;89.72;100620.75;4899389;29;20104;-81
2023/08/18 09:50:13;;;;;;;9.38;5.68;;;;;;;22.46;90.04;100618.97;4899477;29;20474;-77
2023/08/18 09:53:18;;;;;;;5.47;4.60;;;;;;;22.47;89.05;100602.84;4898926;29;20104;-80
2023/08/18 09:56:28;;;;;;;7.43;4.55;;;;;;;22.52;89.59;100603.19;4898990;29;20055;-81
2023/08/18 09:59:50;;;;;;;8.13;4.70;;;;;;;22.64;92.15;100594.97;4899113;29;20083;-70
2023/08/18 10:02:59;;;;;;;5.93;4.90;;;;;;;22.73;90.37;100602.84;4887617;29;20362;-79
2023/08/18 10:06:03;;;;;;;7.32;4.43;;;;;;;22.81;89.78;100603.88;4899049;29;20157;-79
2023/08/18 10:09:07;;;;;;;6.57;4.68;;;;;;;22.96;90.32;100595.19;4898792;29;20111;-83
2023/08/18 10:12:11;;;;;;;8.68;4.55;;;;;;;23.12;90.18;100594.41;4899261;29;20394;-82
2023/08/18 10:15:16;;;;;;;6.30;4.30;;;;;;;23.21;88.74;100584.63;4901132;29;20097;-82
2023/08/18 10:18:21;;;;;;;9.73;4.95;;;;;;;23.28;88.33;100582.97;4899180;29;20438;-82
2023/08/18 10:21:27;;;;;;;5.13;4.35;;;;;;;23.33;86.42;100580.69;4904299;29;20173;-82
2023/08/18 10:24:36;;;;;;;7.20;4.63;;;;;;;23.41;87.12;100582.53;4906043;29;20521;-83
2023/08/18 10:27:41;;;;;;;6.60;4.05;;;;;;;23.47;87.39;100571.22;4908495;29;20050;-85
2023/08/18 10:31:14;;;;;;;8.00;4.82;;;;;;;23.50;87.86;100570.88;4904326;29;20084;-84
2023/08/18 10:34:22;;;;;;;5.82;4.10;;;;;;;23.72;87.79;100571.31;4896840;29;20120;-83
2023/08/18 10:37:26;;;;;;;4.90;4.07;;;;;;;23.78;84.49;100568.81;4903606;29;20047;-83
2023/08/18 10:40:33;;;;;;;8.23;4.47;;;;;;;23.79;84.34;100565.13;4905511;29;20115;-82
2023/08/18 10:43:42;;;;;;;9.88;4.18;;;;;;;24.01;83.95;100552.13;4912286;29;20409;-80
2023/08/18 10:46:46;;;;;;;7.80;3.90;;;;;;;24.01;83.96;100552.97;4912112;29;20051;-81
2023/08/18 10:49:50;;;;;;;5.80;4.18;;;;;;;24.10;84.46;100556.47;4901055;29;20091;-83
2023/08/18 10:52:55;;;;;;;7.00;4.47;;;;;;;24.14;81.60;100544.44;4917076;29;20561;-83
2023/08/18 10:55:59;;;;;;;7.40;3.78;;;;;;;24.20;80.80;100541.09;4917108;29;20075;-81
2023/08/18 10:59:02;;;;;;;6.65;3.78;;;;;;;24.27;81.83;100541.25;4913846;29;20100;-81
2023/08/18 11:02:06;;;;;;;9.32;4.15;;;;;;;24.29;82.10;100536.59;4916673;29;20098;-80
2023/08/18 11:05:10;;;;;;;8.75;3.60;;;;;;;24.59;81.53;100530.53;4916850;29;20087;-80
2023/08/18 11:08:13;;;;;;;6.57;3.90;;;;;;;24.73;80.77;100526.34;4916983;29;20074;-80
2023/08/18 11:11:18;;;;;;;6.18;3.28;;;;;;;24.87;79.59;100521.25;4916737;29;20118;-80
2023/08/18 11:14:21;;;;;;;7.20;4.10;;;;;;;24.95;76.94;100514.06;4916673;29;20154;-80
2023/08/18 11:17:25;;;;;;;5.60;3.17;;;;;;;25.00;78.51;100525.03;4916742;29;20422;-81
2023/08/18 11:20:28;;;;;;;7.22;3.47;;;;;;;25.08;77.37;100515.31;4905026;29;20072;-82
2023/08/18 11:23:31;;;;;;;5.15;3.13;;;;;;;25.19;76.61;100520.31;4916972;29;20124;-73
2023/08/18 11:26:36;;;;;;;9.45;3.78;;;;;;;25.31;75.76;100505.53;4916477;29;20051;-82
2023/08/18 11:29:45;;;;;;;5.70;3.65;;;;;;;25.38;75.55;100497.63;4904873;29;20094;-82
2023/08/18 11:32:49;;;;;;;11.85;3.85;;;;;;;25.55;75.58;100487.63;4916048;29;20528;-78
2023/08/18 11:35:53;;;;;;;6.05;3.30;;;;;;;25.68;75.93;100488.69;4916230;29;20577;-76
2023/08/18 11:39:05;;;;;;;6.78;3.20;;;;;;;25.78;74.39;100482.25;4915487;29;20464;-74
2023/08/18 11:42:08;;;;;;;7.45;3.10;;;;;;;25.91;73.60;100482.50;4915872;29;20079;-75
2023/08/18 11:45:15;;;;;;;8.05;3.50;;;;;;;26.05;75.28;100483.56;4915787;29;20468;-75
2023/08/18 11:48:20;;;;;;;6.25;3.88;;;;;;;26.19;74.57;100475.53;4915766;29;20486;-75
2023/08/18 11:51:24;;;;;;;9.07;3.13;;;;;;;26.14;72.63;100480.63;4915846;29;20127;-75
2023/08/18 11:54:32;;;;;;;7.60;3.40;;;;;;;26.18;71.68;100479.22;4904061;29;20095;-80
2023/08/18 11:57:40;;;;;;;8.40;3.45;;;;;;;26.24;71.65;100482.19;4902037;29;20076;-74
2023/08/18 12:00:45;;;;;;;6.07;3.22;;;;;;;26.37;71.53;100471.66;4914395;29;20043;-76
2023/08/18 12:03:55;;;;;;;5.63;3.25;;;;;;;26.52;69.63;100464.50;4915606;29;20039;-74
2023/08/18 12:06:59;;;;;;;4.80;3.00;;;;;;;26.55;68.60;100469.50;4915881;29;20095;-73
2023/08/18 12:10:04;;;;;;;7.10;3.10;;;;;;;26.63;67.52;100458.66;4915619;29;20115;-77
2023/08/18 12:13:07;;;;;;;7.47;3.20;;;;;;;26.73;67.75;100463.72;4915607;29;20507;-78
2023/08/18 12:16:10;;;;;;;8.27;3.45;;;;;;;26.84;67.07;100457.88;4915495;29;20110;-79
2023/08/18 12:19:13;;;;;;;8.13;3.42;;;;;;;26.81;61.71;100462.81;4915541;29;20096;-81
2023/08/18 12:22:20;;;;;;;9.38;2.90;;;;;;;26.86;61.25;100468.41;4915500;29;20050;-81
2023/08/18 12:25:25;;;;;;;9.85;3.03;;;;;;;26.92;59.73;100454.25;4915581;29;20135;-83
2023/08/18 12:28:28;;;;;;;6.07;2.70;;;;;;;27.07;58.21;100454.22;4903933;29;20055;-76
2023/08/18 12:31:31;;;;;;;9.55;3.30;;;;;;;27.22;58.44;100449.69;4915568;29;20086;-81
2023/08/18 12:34:35;;;;;;;7.22;3.20;;;;;;;27.37;58.77;100452.28;4916271;29;20122;-69
2023/08/18 12:37:40;;;;;;;8.93;3.17;;;;;;;27.51;58.95;100443.34;4915368;29;20127;-78
2023/08/18 12:40:44;;;;;;;9.45;2.88;;;;;;;27.73;57.83;100449.53;4915499;29;20090;-78
2023/08/18 12:43:47;;;;;;;9.27;3.42;;;;;;;27.94;56.83;100447.84;4914919;29;20107;-78
2023/08/18 12:46:50;;;;;;;4.80;2.75;;;;;;;28.26;56.72;100444.53;4915569;29;20051;-78
2023/08/18 12:49:54;;;;;;;11.10;3.65;;;;;;;28.32;54.49;100445.63;4916797;29;20474;-80
2023/08/18 12:52:57;;;;;;;7.25;2.83;;;;;;;28.47;55.20;100448.22;4919685;29;20110;-81
2023/08/18 12:56:00;;;;;;;4.97;2.40;;;;;;;28.69;55.73;100451.63;4919262;29;20470;-81
2023/08/18 12:59:04;;;;;;;8.02;3.28;;;;;;;28.72;53.90;100452.06;4919233;29;20490;-84
2023/08/18 13:02:08;;;;;;;7.53;3.53;;;;;;;28.86;52.97;100436.78;4919339;29;20106;-82
2023/08/18 13:05:13;;;;;;;8.50;2.70;;;;;;;29.03;51.92;100447.22;4919185;29;20453;-81
2023/08/18 13:08:19;;;;;;;10.38;3.50;;;;;;;29.32;52.49;100454.94;4907810;29;20055;-81
2023/08/18 13:11:23;;;;;;;5.90;3.20;;;;;;;29.47;52.85;100448.53;4918757;29;20047;-83
2023/08/18 13:14:26;;;;;;;5.60;3.38;;;;;;;29.72;52.15;100446.94;4919031;29;20217;-82
2023/08/18 13:17:29;;;;;;;4.30;3.05;;;;;;;29.97;50.63;100444.44;4919159;29;20517;-82
2023/08/18 13:20:33;;;;;;;8.35;3.15;;;;;;;29.89;48.39;100442.75;4919067;29;20123;-67
2023/08/18 13:23:36;;;;;;;10.18;2.75;;;;;;;29.79;46.44;100436.16;4919211;29;20099;-69
2023/08/18 13:26:40;;;;;;;5.18;2.85;;;;;;;30.04;49.30;100436.31;4919049;29;20421;-68
2023/08/18 13:29:43;;;;;;;9.80;2.70;;;;;;;30.15;46.41;100432.16;4919086;29;20100;-68
2023/08/18 13:32:46;;;;;;;7.63;2.90;;;;;;;30.09;47.25;100431.16;4918822;29;20132;-68
2023/08/18 13:35:50;;;;;;;5.93;2.90;;;;;;;30.40;47.15;100435.84;4918834;29;20047;-68
2023/08/18 13:38:53;;;;;;;7.10;2.80;;;;;;;30.77;46.22;100431.59;4918863;29;20234;-69
2023/08/18 13:41:57;;;;;;;5.45;2.40;;;;;;;30.94;43.75;100431.09;4918626;29;20522;-69
2023/08/18 13:45:02;;;;;;;8.57;2.95;;;;;;;31.22;44.91;100436.13;4918442;29;20059;-68
2023/08/18 13:48:05;;;;;;;8.65;3.13;;;;;;;31.55;44.54;100430.47;4918506;29;20099;-80
2023/08/18 13:51:09;;;;;;;7.45;2.90;;;;;;;32.00;43.04;100432.19;4918438;29;20043;-82
2023/08/18 13:54:15;;;;;;;10.95;2.95;;;;;;;32.68;41.00;100423.13;4918670;29;20136;-78
2023/08/18 13:57:18;;;;;;;4.75;2.60;;;;;;;33.24;39.98;100430.88;4918469;29;20064;-80
2023/08/18 14:00:21;;;;;;;7.28;3.15;;;;;;;33.69;38.75;100419.56;4918039;29;20079;-83
2023/08/18 14:03:25;;;;;;;8.70;3.22;;;;;;;35.39;34.83;100417.34;4918189;29;20111;-78
2023/08/18 14:06:31;;;;;;;8.07;2.90;;;;;;;38.57;29.98;100413.25;4918569;29;20131;-78
2023/08/18 14:09:36;;;;;;;7.20;2.50;;;;;;;40.30;26.60;100408.84;4892482;29;20062;-80
2023/08/18 14:12:46;;;;;;;8.82;2.70;;;;;;;42.62;23.98;100410.09;4914600;29;20128;-79
2023/08/18 14:15:50;;;;;;;6.25;2.25;;;;;;;44.23;21.93;100412.28;4899437;29;20505;-80
2023/08/18 14:18:54;;;;;;;7.07;2.50;;;;;;;43.62;22.01;100402.44;4899334;29;20143;-80
2023/08/18 14:21:58;;;;;;;6.40;2.22;;;;;;;44.45;21.37;100403.28;4899426;29;20095;-79
2023/08/18 14:25:04;;;;;;;7.88;2.38;;;;;;;44.49;20.93;100392.44;4899180;29;20079;-78
2023/08/18 14:28:07;;;;;;;8.65;2.45;;;;;;;44.03;20.68;100401.66;4899172;29;20176;-80
2023/08/18 14:31:12;;;;;;;5.13;2.10;;;;;;;44.35;20.66;100386.13;4899233;29;20410;-84
2023/08/18 14:34:15;;;;;;;5.45;2.20;;;;;;;45.63;20.03;100395.72;4898738;29;20060;-79
2023/08/18 14:37:18;;;;;;;9.77;2.72;;;;;;;44.82;20.82;100390.28;4899060;29;20108;-72
2023/08/18 14:40:21;;;;;;;6.32;2.50;;;;;;;44.84;20.84;100382.53;4898889;29;20047;-77
2023/08/18 14:43:25;;;;;;;7.15;2.33;;;;;;;44.68;20.36;100378.50;4898396;29;20553;-78
2023/08/18 14:46:28;;;;;;;8.35;2.28;;;;;;;43.80;21.36;100368.50;4898376;29;20060;-77
2023/08/18 14:49:32;;;;;;;5.72;2.28;;;;;;;41.68;22.07;100372.22;4887190;29;20051;-77
2023/08/18 14:52:35;;;;;;;9.55;2.30;;;;;;;42.87;21.79;100353.91;4898309;29;20055;-77
2023/08/18 14:55:41;;;;;;;7.45;2.38;;;;;;;43.53;22.05;100358.31;4898596;29;20058;-78
2023/08/18 14:58:44;;;;;;;8.68;2.55;;;;;;;41.91;22.09;100370.63;4898361;29;20069;-77
2023/08/18 15:01:49;;;;;;;5.93;1.95;;;;;;;42.85;21.23;100362.44;4898259;29;20051;-77
2023/08/18 15:04:52;;;;;;;8.43;2.45;;;;;;;42.97;22.68;100359.25;4898484;29;20409;-78
2023/08/18 15:07:55;;;;;;;7.25;2.28;;;;;;;42.89;24.02;100358.00;4898068;29;20067;-77
2023/08/18 15:10:59;;;;;;;7.50;2.45;;;;;;;43.43;23.58;100361.22;4897881;29;20141;-77
2023/08/18 15:14:03;;;;;;;14.15;2.22;;;;;;;42.96;25.15;100363.94;4897002;29;20051;-77